createdAt,value
2017-10-02T00:00:37.614Z,1016.50
2017-10-02T00:01:37.572Z,1016.49
2017-10-02T00:02:37.534Z,1016.47
2017-10-02T00:03:37.506Z,1016.45
2017-10-02T00:04:37.469Z,1016.43
2017-10-02T00:05:37.439Z,1016.43
2017-10-02T00:06:37.407Z,1016.47
2017-10-02T00:07:37.360Z,1016.40
2017-10-02T00:08:37.321Z,1016.39
2017-10-02T00:09:37.283Z,1016.33
2017-10-02T00:10:37.250Z,1016.37
2017-10-02T00:11:37.222Z,1016.33
2017-10-02T00:12:37.190Z,1016.37
2017-10-02T00:13:37.142Z,1016.34
2017-10-02T00:14:37.105Z,1016.36
2017-10-02T00:15:37.070Z,1016.39
2017-10-02T00:16:37.032Z,1016.37
2017-10-02T00:17:37.004Z,1016.37
2017-10-02T00:18:36.960Z,1016.34
2017-10-02T00:19:36.936Z,1016.34
2017-10-02T00:20:36.888Z,1016.34
2017-10-02T00:21:36.849Z,1016.32
2017-10-02T00:22:36.815Z,1016.34
2017-10-02T00:23:36.779Z,1016.30
2017-10-02T00:24:36.747Z,1016.27
2017-10-02T00:25:36.715Z,1016.23
2017-10-02T00:26:36.680Z,1016.23
2017-10-02T00:27:36.657Z,1016.25
2017-10-02T00:28:36.615Z,1016.23
2017-10-02T00:29:36.597Z,1016.23
2017-10-02T00:30:36.526Z,1016.23
2017-10-02T00:31:36.508Z,1016.24
2017-10-02T00:32:36.457Z,1016.20
2017-10-02T00:33:36.419Z,1016.19
2017-10-02T00:34:36.396Z,1016.19
2017-10-02T00:35:36.343Z,1016.17
2017-10-02T00:36:36.307Z,1016.12
2017-10-02T00:37:36.272Z,1016.07
2017-10-02T00:38:36.239Z,1016.08
2017-10-02T00:39:36.256Z,1016.01
2017-10-02T00:40:36.165Z,1016.01
2017-10-02T00:41:36.136Z,1016.00
2017-10-02T00:42:36.101Z,1016.02
2017-10-02T00:43:36.063Z,1016.05
2017-10-02T00:44:36.023Z,1016.05
2017-10-02T00:45:35.983Z,1016.05
2017-10-02T00:46:35.948Z,1016.00
2017-10-02T00:47:35.917Z,1015.97
2017-10-02T00:48:35.878Z,1015.95
2017-10-02T00:49:35.838Z,1015.90
2017-10-02T00:50:35.801Z,1015.90
2017-10-02T00:51:35.763Z,1015.85
2017-10-02T00:52:35.734Z,1015.81
2017-10-02T00:53:35.691Z,1015.84
2017-10-02T00:54:35.658Z,1015.77
2017-10-02T00:55:35.630Z,1015.72
2017-10-02T00:56:35.584Z,1015.71
2017-10-02T00:57:35.549Z,1015.67
2017-10-02T00:58:35.512Z,1015.63
2017-10-02T00:59:35.477Z,1015.63
2017-10-02T01:00:35.438Z,1015.64
2017-10-02T01:01:35.402Z,1015.63
2017-10-02T01:02:35.367Z,1015.63
2017-10-02T01:03:35.332Z,1015.61
2017-10-02T01:04:35.290Z,1015.58
2017-10-02T01:05:35.258Z,1015.54
2017-10-02T01:06:35.217Z,1015.48
2017-10-02T01:07:35.184Z,1015.52
2017-10-02T01:08:35.146Z,1015.46
2017-10-02T01:09:35.108Z,1015.48
2017-10-02T01:10:35.075Z,1015.51
2017-10-02T01:11:35.038Z,1015.50
2017-10-02T01:12:35.003Z,1015.52
2017-10-02T01:13:34.964Z,1015.50
2017-10-02T01:14:34.929Z,1015.47
2017-10-02T01:15:34.890Z,1015.51
2017-10-02T01:16:34.863Z,1015.43
2017-10-02T01:17:34.819Z,1015.40
2017-10-02T01:18:34.780Z,1015.40
2017-10-02T01:19:34.747Z,1015.36
2017-10-02T01:20:34.712Z,1015.39
2017-10-02T01:21:34.674Z,1015.40
2017-10-02T01:22:34.641Z,1015.37
2017-10-02T01:23:34.609Z,1015.38
2017-10-02T01:24:34.566Z,1015.37
2017-10-02T01:25:34.526Z,1015.36
2017-10-02T01:26:34.503Z,1015.32
2017-10-02T01:27:34.457Z,1015.36
2017-10-02T01:28:34.418Z,1015.30
2017-10-02T01:29:34.392Z,1015.28
2017-10-02T01:30:34.350Z,1015.25
2017-10-02T01:31:34.310Z,1015.26
2017-10-02T01:32:34.281Z,1015.23
2017-10-02T01:33:34.239Z,1015.22
2017-10-02T01:34:34.201Z,1015.27
2017-10-02T01:35:34.162Z,1015.28
2017-10-02T01:36:34.129Z,1015.26
2017-10-02T01:37:34.091Z,1015.23
2017-10-02T01:38:34.070Z,1015.23
2017-10-02T01:39:34.022Z,1015.23
2017-10-02T01:40:33.984Z,1015.20
2017-10-02T01:41:33.952Z,1015.18
2017-10-02T01:42:33.911Z,1015.14
2017-10-02T01:43:33.873Z,1015.14
2017-10-02T01:44:33.838Z,1015.11
2017-10-02T01:45:33.799Z,1015.06
2017-10-02T01:46:33.764Z,1015.04
2017-10-02T01:47:33.727Z,1015.02
2017-10-02T01:48:33.696Z,1015.02
2017-10-02T01:49:33.656Z,1015.01
2017-10-02T01:50:33.618Z,1014.97
2017-10-02T01:51:33.586Z,1014.97
2017-10-02T01:52:33.554Z,1014.96
2017-10-02T01:53:33.518Z,1014.91
2017-10-02T01:54:33.472Z,1014.90
2017-10-02T01:55:33.436Z,1014.88
2017-10-02T01:56:33.400Z,1014.87
2017-10-02T01:57:33.361Z,1014.83
2017-10-02T01:58:33.342Z,1014.86
2017-10-02T01:59:33.291Z,1014.82
2017-10-02T02:00:33.253Z,1014.83
2017-10-02T02:01:33.215Z,1014.82
2017-10-02T02:02:33.181Z,1014.83
2017-10-02T02:03:33.141Z,1014.81
2017-10-02T02:04:33.107Z,1014.81
2017-10-02T02:05:33.076Z,1014.78
2017-10-02T02:06:33.037Z,1014.78
2017-10-02T02:07:32.995Z,1014.76
2017-10-02T02:08:32.961Z,1014.76
2017-10-02T02:09:32.924Z,1014.74
2017-10-02T02:10:32.885Z,1014.71
2017-10-02T02:11:32.850Z,1014.68
2017-10-02T02:12:32.815Z,1014.69
2017-10-02T02:13:32.774Z,1014.68
2017-10-02T02:14:32.751Z,1014.63
2017-10-02T02:15:32.707Z,1014.64
2017-10-02T02:16:32.666Z,1014.59
2017-10-02T02:17:32.628Z,1014.59
2017-10-02T02:18:32.593Z,1014.54
2017-10-02T02:19:32.557Z,1014.54
2017-10-02T02:20:32.520Z,1014.57
2017-10-02T02:21:32.487Z,1014.57
2017-10-02T02:22:32.450Z,1014.53
2017-10-02T02:23:32.407Z,1014.53
2017-10-02T02:24:32.373Z,1014.51
2017-10-02T02:25:32.340Z,1014.52
2017-10-02T02:26:32.298Z,1014.55
2017-10-02T02:27:32.268Z,1014.56
2017-10-02T02:28:32.231Z,1014.53
2017-10-02T02:29:32.189Z,1014.50
2017-10-02T02:30:32.152Z,1014.55
2017-10-02T02:31:32.119Z,1014.57
2017-10-02T02:32:32.083Z,1014.48
2017-10-02T02:33:32.041Z,1014.50
2017-10-02T02:34:32.007Z,1014.53
2017-10-02T02:35:31.973Z,1014.50
2017-10-02T02:36:31.941Z,1014.47
2017-10-02T02:37:31.895Z,1014.47
2017-10-02T02:38:31.860Z,1014.44
2017-10-02T02:39:31.827Z,1014.50
2017-10-02T02:40:31.786Z,1014.47
2017-10-02T02:41:31.749Z,1014.52
2017-10-02T02:42:31.714Z,1014.52
2017-10-02T02:43:31.678Z,1014.53
2017-10-02T02:44:31.647Z,1014.50
2017-10-02T02:45:31.603Z,1014.55
2017-10-02T02:46:31.567Z,1014.58
2017-10-02T02:47:31.531Z,1014.57
2017-10-02T02:48:31.495Z,1014.59
2017-10-02T02:49:31.458Z,1014.59
2017-10-02T02:50:31.419Z,1014.63
2017-10-02T02:51:31.387Z,1014.63
2017-10-02T02:52:31.350Z,1014.66
2017-10-02T02:53:31.310Z,1014.62
2017-10-02T02:54:31.272Z,1014.60
2017-10-02T02:55:31.238Z,1014.63
2017-10-02T02:56:31.200Z,1014.60
2017-10-02T02:57:31.162Z,1014.60
2017-10-02T02:58:31.127Z,1014.60
2017-10-02T02:59:31.092Z,1014.62
2017-10-02T03:00:31.052Z,1014.59
2017-10-02T03:01:31.019Z,1014.53
2017-10-02T03:02:30.977Z,1014.54
2017-10-02T03:03:30.948Z,1014.51
2017-10-02T03:04:30.908Z,1014.50
2017-10-02T03:05:30.873Z,1014.49
2017-10-02T03:06:30.833Z,1014.44
2017-10-02T03:07:30.803Z,1014.45
2017-10-02T03:08:30.767Z,1014.43
2017-10-02T03:09:30.721Z,1014.44
2017-10-02T03:10:30.682Z,1014.38
2017-10-02T03:11:30.647Z,1014.34
2017-10-02T03:12:30.612Z,1014.31
2017-10-02T03:13:30.584Z,1014.32
2017-10-02T03:14:30.538Z,1014.32
2017-10-02T03:15:30.500Z,1014.27
2017-10-02T03:16:30.462Z,1014.31
2017-10-02T03:17:30.425Z,1014.32
2017-10-02T03:18:30.389Z,1014.30
2017-10-02T03:19:30.359Z,1014.28
2017-10-02T03:20:30.324Z,1014.26
2017-10-02T03:21:30.277Z,1014.25
2017-10-02T03:22:30.242Z,1014.24
2017-10-02T03:23:30.203Z,1014.22
2017-10-02T03:24:30.168Z,1014.23
2017-10-02T03:25:30.132Z,1014.20
2017-10-02T03:26:30.095Z,1014.20
2017-10-02T03:27:30.065Z,1014.19
2017-10-02T03:28:30.022Z,1014.18
2017-10-02T03:29:29.988Z,1014.09
2017-10-02T03:30:29.951Z,1014.13
2017-10-02T03:31:29.912Z,1014.04
2017-10-02T03:32:29.871Z,1014.05
2017-10-02T03:33:29.835Z,1014.07
2017-10-02T03:34:29.804Z,1014.12
2017-10-02T03:35:29.761Z,1014.08
2017-10-02T03:36:29.728Z,1014.12
2017-10-02T03:37:29.686Z,1014.13
2017-10-02T03:38:29.653Z,1014.16
2017-10-02T03:39:29.616Z,1014.17
2017-10-02T03:40:29.586Z,1014.16
2017-10-02T03:41:29.543Z,1014.19
2017-10-02T03:42:29.506Z,1014.16
2017-10-02T03:43:29.471Z,1014.11
2017-10-02T03:44:29.432Z,1014.09
2017-10-02T03:45:29.394Z,1014.08
2017-10-02T03:46:29.371Z,1014.09
2017-10-02T03:47:29.326Z,1014.07
2017-10-02T03:48:29.285Z,1014.01
2017-10-02T03:49:29.247Z,1014.03
2017-10-02T03:50:29.210Z,1013.99
2017-10-02T03:51:29.172Z,1013.98
2017-10-02T03:52:29.136Z,1013.92
2017-10-02T03:53:29.111Z,1013.91
2017-10-02T03:54:29.066Z,1013.91
2017-10-02T03:55:29.028Z,1013.87
2017-10-02T03:56:28.992Z,1013.86
2017-10-02T03:57:28.954Z,1013.85
2017-10-02T03:58:28.914Z,1013.85
2017-10-02T03:59:28.882Z,1013.82
2017-10-02T04:00:28.847Z,1013.86
2017-10-02T04:01:28.806Z,1013.81
2017-10-02T04:02:28.767Z,1013.78
2017-10-02T04:03:28.731Z,1013.80
2017-10-02T04:04:28.694Z,1013.75
2017-10-02T04:05:28.657Z,1013.78
2017-10-02T04:06:28.621Z,1013.69
2017-10-02T04:07:28.588Z,1013.67
2017-10-02T04:08:28.550Z,1013.68
2017-10-02T04:09:28.510Z,1013.65
2017-10-02T04:10:28.474Z,1013.62
2017-10-02T04:11:28.444Z,1013.58
2017-10-02T04:12:28.402Z,1013.59
2017-10-02T04:13:28.377Z,1013.60
2017-10-02T04:14:28.332Z,1013.56
2017-10-02T04:15:28.294Z,1013.55
2017-10-02T04:16:28.255Z,1013.56
2017-10-02T04:17:28.214Z,1013.56
2017-10-02T04:18:28.204Z,1013.54
2017-10-02T04:19:28.148Z,1013.49
2017-10-02T04:20:28.106Z,1013.50
2017-10-02T04:21:28.071Z,1013.47
2017-10-02T04:22:28.033Z,1013.47
2017-10-02T04:23:27.998Z,1013.44
2017-10-02T04:24:27.959Z,1013.43
2017-10-02T04:25:27.935Z,1013.42
2017-10-02T04:26:27.887Z,1013.46
2017-10-02T04:27:27.849Z,1013.42
2017-10-02T04:28:27.815Z,1013.41
2017-10-02T04:29:27.787Z,1013.42
2017-10-02T04:30:27.747Z,1013.42
2017-10-02T04:31:27.703Z,1013.42
2017-10-02T04:32:27.665Z,1013.37
2017-10-02T04:33:27.676Z,1013.39
2017-10-02T04:34:27.590Z,1013.37
2017-10-02T04:35:27.560Z,1013.39
2017-10-02T04:36:27.519Z,1013.40
2017-10-02T04:37:27.490Z,1013.35
2017-10-02T04:38:27.475Z,1013.39
2017-10-02T04:39:27.435Z,1013.38
2017-10-02T04:40:27.388Z,1013.37
2017-10-02T04:41:27.334Z,1013.36
2017-10-02T04:42:27.300Z,1013.32
2017-10-02T04:43:27.260Z,1013.31
2017-10-02T04:44:27.230Z,1013.30
2017-10-02T04:45:27.196Z,1013.28
2017-10-02T04:46:27.149Z,1013.27
2017-10-02T04:47:27.115Z,1013.23
2017-10-02T04:48:27.108Z,1013.24
2017-10-02T04:49:27.043Z,1013.23
2017-10-02T04:50:27.015Z,1013.24
2017-10-02T04:51:26.969Z,1013.21
2017-10-02T04:52:26.938Z,1013.20
2017-10-02T04:53:26.899Z,1013.18
2017-10-02T04:54:26.893Z,1013.09
2017-10-02T04:55:26.819Z,1013.09
2017-10-02T04:56:26.789Z,1013.10
2017-10-02T04:57:26.743Z,1013.07
2017-10-02T04:58:26.737Z,1013.04
2017-10-02T04:59:26.673Z,1013.02
2017-10-02T05:00:26.635Z,1013.01
2017-10-02T05:01:26.595Z,1012.96
2017-10-02T05:02:26.564Z,1012.98
2017-10-02T05:03:26.529Z,1013.01
2017-10-02T05:04:26.491Z,1012.99
2017-10-02T05:05:26.455Z,1012.97
2017-10-02T05:06:26.415Z,1013.03
2017-10-02T05:07:26.383Z,1013.06
2017-10-02T05:08:26.341Z,1013.00
2017-10-02T05:09:26.306Z,1013.01
2017-10-02T05:10:26.273Z,1012.94
2017-10-02T05:11:26.230Z,1012.96
2017-10-02T05:12:26.195Z,1012.94
2017-10-02T05:13:26.162Z,1012.92
2017-10-02T05:14:26.120Z,1012.99
2017-10-02T05:15:26.097Z,1012.99
2017-10-02T05:16:26.051Z,1013.00
2017-10-02T05:17:26.013Z,1013.00
2017-10-02T05:18:25.975Z,1012.98
2017-10-02T05:19:25.935Z,1013.00
2017-10-02T05:20:25.902Z,1012.94
2017-10-02T05:21:25.865Z,1013.00
2017-10-02T05:22:25.830Z,1012.98
2017-10-02T05:23:25.792Z,1012.96
2017-10-02T05:24:25.760Z,1012.94
2017-10-02T05:25:25.727Z,1012.97
2017-10-02T05:26:25.679Z,1012.96
2017-10-02T05:27:25.642Z,1013.02
2017-10-02T05:28:25.606Z,1013.03
2017-10-02T05:29:25.572Z,1013.03
2017-10-02T05:30:25.536Z,1012.91
2017-10-02T05:31:25.499Z,1012.88
2017-10-02T05:32:25.460Z,1012.86
2017-10-02T05:33:25.424Z,1012.79
2017-10-02T05:34:25.384Z,1012.72
2017-10-02T05:35:25.349Z,1012.65
2017-10-02T05:36:25.315Z,1012.63
2017-10-02T05:37:25.279Z,1012.58
2017-10-02T05:38:25.246Z,1012.54
2017-10-02T05:39:25.207Z,1012.52
2017-10-02T05:40:25.173Z,1012.47
2017-10-02T05:41:25.133Z,1012.46
2017-10-02T05:42:25.102Z,1012.49
2017-10-02T05:43:25.060Z,1012.48
2017-10-02T05:44:25.026Z,1012.45
2017-10-02T05:45:24.990Z,1012.42
2017-10-02T05:46:24.954Z,1012.38
2017-10-02T05:47:24.921Z,1012.39
2017-10-02T05:48:24.889Z,1012.34
2017-10-02T05:49:24.849Z,1012.37
2017-10-02T05:50:24.817Z,1012.43
2017-10-02T05:51:24.779Z,1012.35
2017-10-02T05:52:24.743Z,1012.39
2017-10-02T05:53:24.714Z,1012.37
2017-10-02T05:54:24.682Z,1012.38
2017-10-02T05:55:24.649Z,1012.27
2017-10-02T05:56:24.652Z,1012.36
2017-10-02T05:57:24.573Z,1012.28
2017-10-02T05:58:24.543Z,1012.31
2017-10-02T05:59:24.505Z,1012.27
2017-10-02T06:00:24.463Z,1012.27
2017-10-02T06:01:24.429Z,1012.26
2017-10-02T06:02:24.391Z,1012.27
2017-10-02T06:03:24.358Z,1012.23
2017-10-02T06:04:24.324Z,1012.23
2017-10-02T06:05:24.285Z,1012.18
2017-10-02T06:06:24.255Z,1012.18
2017-10-02T06:07:24.215Z,1012.20
2017-10-02T06:08:24.180Z,1012.18
2017-10-02T06:09:24.142Z,1012.12
2017-10-02T06:10:24.113Z,1012.22
2017-10-02T06:11:24.073Z,1012.20
2017-10-02T06:12:24.053Z,1012.21
2017-10-02T06:13:23.999Z,1012.24
2017-10-02T06:14:23.973Z,1012.24
2017-10-02T06:15:23.930Z,1012.20
2017-10-02T06:16:23.898Z,1012.16
2017-10-02T06:17:23.861Z,1012.20
2017-10-02T06:18:23.825Z,1012.16
2017-10-02T06:19:23.788Z,1012.12
2017-10-02T06:20:23.755Z,1012.08
2017-10-02T06:21:23.714Z,1012.10
2017-10-02T06:22:23.685Z,1012.14
2017-10-02T06:23:23.645Z,1012.04
2017-10-02T06:24:23.611Z,1012.08
2017-10-02T06:25:23.576Z,1012.08
2017-10-02T06:26:23.538Z,1012.10
2017-10-02T06:27:23.505Z,1012.13
2017-10-02T06:28:23.476Z,1012.10
2017-10-02T06:29:23.434Z,1012.12
2017-10-02T06:30:23.397Z,1012.13
2017-10-02T06:31:23.361Z,1012.11
2017-10-02T06:32:23.325Z,1012.10
2017-10-02T06:33:23.290Z,1012.10
2017-10-02T06:34:23.261Z,1012.06
2017-10-02T06:35:23.216Z,1012.05
2017-10-02T06:36:23.185Z,1012.04
2017-10-02T06:37:23.154Z,1012.04
2017-10-02T06:38:23.111Z,1012.05
2017-10-02T06:39:23.079Z,1012.03
2017-10-02T06:40:23.066Z,1012.04
2017-10-02T06:41:23.008Z,1012.11
2017-10-02T06:42:22.975Z,1012.01
2017-10-02T06:43:22.935Z,1012.04
2017-10-02T06:44:22.902Z,1012.05
2017-10-02T06:45:22.861Z,1012.05
2017-10-02T06:46:22.831Z,1012.00
2017-10-02T06:47:22.791Z,1012.01
2017-10-02T06:48:22.759Z,1012.02
2017-10-02T06:49:22.723Z,1012.11
2017-10-02T06:50:22.685Z,1012.06
2017-10-02T06:51:22.654Z,1012.05
2017-10-02T06:52:22.618Z,1012.10
2017-10-02T06:53:22.598Z,1012.11
2017-10-02T06:54:22.542Z,1012.09
2017-10-02T06:55:22.522Z,1012.13
2017-10-02T06:56:22.472Z,1012.12
2017-10-02T06:57:22.445Z,1012.12
2017-10-02T06:58:22.403Z,1012.14
2017-10-02T06:59:22.380Z,1012.08
2017-10-02T07:00:22.347Z,1012.05
2017-10-02T07:01:22.317Z,1012.05
2017-10-02T07:02:22.262Z,1011.96
2017-10-02T07:03:22.245Z,1011.96
2017-10-02T07:04:22.194Z,1012.02
2017-10-02T07:05:22.178Z,1012.02
2017-10-02T07:06:22.126Z,1011.97
2017-10-02T07:07:22.096Z,1011.96
2017-10-02T07:08:22.069Z,1012.02
2017-10-02T07:09:22.027Z,1012.03
2017-10-02T07:10:21.983Z,1011.90
2017-10-02T07:11:21.951Z,1011.91
2017-10-02T07:12:21.919Z,1011.87
2017-10-02T07:13:21.875Z,1011.95
2017-10-02T07:14:21.856Z,1011.89
2017-10-02T07:15:21.833Z,1011.83
2017-10-02T07:16:21.789Z,1011.85
2017-10-02T07:17:21.745Z,1011.88
2017-10-02T07:18:21.705Z,1011.87
2017-10-02T07:19:21.668Z,1011.87
2017-10-02T07:20:21.635Z,1011.86
2017-10-02T07:21:21.623Z,1011.83
2017-10-02T07:22:21.567Z,1011.88
2017-10-02T07:23:21.532Z,1011.83
2017-10-02T07:24:21.509Z,1011.76
2017-10-02T07:25:21.459Z,1011.70
2017-10-02T07:26:21.422Z,1011.75
2017-10-02T07:27:21.390Z,1011.71
2017-10-02T07:28:21.352Z,1011.69
2017-10-02T07:29:21.319Z,1011.68
2017-10-02T07:30:21.285Z,1011.65
2017-10-02T07:31:21.246Z,1011.66
2017-10-02T07:32:21.218Z,1011.69
2017-10-02T07:33:21.178Z,1011.60
2017-10-02T07:34:21.139Z,1011.59
2017-10-02T07:35:21.115Z,1011.59
2017-10-02T07:36:21.076Z,1011.53
2017-10-02T07:37:21.046Z,1011.55
2017-10-02T07:38:21.007Z,1011.50
2017-10-02T07:39:20.968Z,1011.49
2017-10-02T07:40:20.937Z,1011.48
2017-10-02T07:41:20.905Z,1011.47
2017-10-02T07:42:20.871Z,1011.45
2017-10-02T07:43:20.832Z,1011.41
2017-10-02T07:44:20.799Z,1011.46
2017-10-02T07:45:20.767Z,1011.46
2017-10-02T07:46:20.736Z,1011.48
2017-10-02T07:47:20.695Z,1011.49
2017-10-02T07:48:20.659Z,1011.55
2017-10-02T07:49:20.643Z,1011.49
2017-10-02T07:50:20.596Z,1011.45
2017-10-02T07:51:20.562Z,1011.47
2017-10-02T07:52:20.521Z,1011.42
2017-10-02T07:53:20.490Z,1011.41
2017-10-02T07:54:20.460Z,1011.43
2017-10-02T07:55:20.420Z,1011.40
2017-10-02T07:56:20.391Z,1011.41
2017-10-02T07:57:20.354Z,1011.36
2017-10-02T07:58:20.316Z,1011.34
2017-10-02T07:59:20.285Z,1011.29
2017-10-02T08:00:20.271Z,1011.24
2017-10-02T08:01:20.216Z,1011.27
2017-10-02T08:02:20.177Z,1011.23
2017-10-02T08:03:20.152Z,1011.20
2017-10-02T08:04:20.112Z,1011.15
2017-10-02T08:05:20.076Z,1011.17
2017-10-02T08:06:20.042Z,1011.16
2017-10-02T08:07:20.008Z,1011.16
2017-10-02T08:08:19.975Z,1011.18
2017-10-02T08:09:19.947Z,1011.19
2017-10-02T08:10:19.907Z,1011.12
2017-10-02T08:11:19.871Z,1011.12
2017-10-02T08:12:19.839Z,1011.11
2017-10-02T08:13:19.815Z,1011.09
2017-10-02T08:14:19.769Z,1011.03
2017-10-02T08:15:19.736Z,1011.09
2017-10-02T08:16:19.703Z,1011.06
2017-10-02T08:17:19.669Z,1011.07
2017-10-02T08:18:19.634Z,1011.06
2017-10-02T08:19:19.604Z,1011.03
2017-10-02T08:20:19.568Z,1011.00
2017-10-02T08:21:19.535Z,1011.00
2017-10-02T08:22:19.502Z,1010.94
2017-10-02T08:23:19.474Z,1010.96
2017-10-02T08:24:19.431Z,1010.85
2017-10-02T08:25:19.399Z,1010.86
2017-10-02T08:26:19.366Z,1010.84
2017-10-02T08:27:19.332Z,1010.81
2017-10-02T08:28:19.300Z,1010.79
2017-10-02T08:29:19.271Z,1010.81
2017-10-02T08:30:19.231Z,1010.73
2017-10-02T08:31:19.202Z,1010.83
2017-10-02T08:32:19.167Z,1010.74
2017-10-02T08:33:19.130Z,1010.78
2017-10-02T08:34:19.098Z,1010.69
2017-10-02T08:35:19.070Z,1010.72
2017-10-02T08:36:19.030Z,1010.74
2017-10-02T08:37:19.001Z,1010.73
2017-10-02T08:38:18.970Z,1010.70
2017-10-02T08:39:18.939Z,1010.76
2017-10-02T08:40:18.900Z,1010.73
2017-10-02T08:41:18.867Z,1010.62
2017-10-02T08:42:18.834Z,1010.66
2017-10-02T08:43:18.807Z,1010.67
2017-10-02T08:44:18.765Z,1010.59
2017-10-02T08:45:18.734Z,1010.58
2017-10-02T08:46:18.706Z,1010.56
2017-10-02T08:47:18.674Z,1010.55
2017-10-02T08:48:18.630Z,1010.57
2017-10-02T08:49:18.610Z,1010.52
2017-10-02T08:50:18.570Z,1010.47
2017-10-02T08:51:18.536Z,1010.40
2017-10-02T08:52:18.500Z,1010.33
2017-10-02T08:53:18.470Z,1010.40
2017-10-02T08:54:18.433Z,1010.41
2017-10-02T08:55:18.398Z,1010.40
2017-10-02T08:56:18.372Z,1010.35
2017-10-02T08:57:18.333Z,1010.32
2017-10-02T08:58:18.301Z,1010.34
2017-10-02T08:59:18.275Z,1010.28
2017-10-02T09:00:18.235Z,1010.30
2017-10-02T09:01:18.200Z,1010.22
2017-10-02T09:02:18.165Z,1010.21
2017-10-02T09:03:18.144Z,1010.17
2017-10-02T09:04:18.103Z,1010.26
2017-10-02T09:05:18.069Z,1010.23
2017-10-02T09:06:18.040Z,1010.22
2017-10-02T09:07:18.016Z,1010.23
2017-10-02T09:08:17.974Z,1010.16
2017-10-02T09:09:17.938Z,1010.13
2017-10-02T09:10:17.909Z,1010.10
2017-10-02T09:11:17.891Z,1010.09
2017-10-02T09:12:17.848Z,1010.18
2017-10-02T09:13:17.808Z,1010.11
2017-10-02T09:14:17.774Z,1010.14
2017-10-02T09:15:17.740Z,1010.08
2017-10-02T09:16:17.716Z,1010.14
2017-10-02T09:17:17.678Z,1010.15
2017-10-02T09:18:17.651Z,1010.11
2017-10-02T09:19:17.611Z,1010.09
2017-10-02T09:20:17.579Z,1010.10
2017-10-02T09:21:17.547Z,1010.06
2017-10-02T09:22:17.513Z,1010.02
2017-10-02T09:23:17.483Z,1010.02
2017-10-02T09:24:17.449Z,1009.96
2017-10-02T09:25:17.420Z,1009.98
2017-10-02T09:26:17.381Z,1009.89
2017-10-02T09:27:17.357Z,1009.95
2017-10-02T09:28:17.317Z,1009.85
2017-10-02T09:29:17.289Z,1009.92
2017-10-02T09:30:17.254Z,1009.89
2017-10-02T09:31:17.226Z,1009.86
2017-10-02T09:32:17.190Z,1009.90
2017-10-02T09:33:17.152Z,1009.85
2017-10-02T09:34:17.122Z,1009.79
2017-10-02T09:35:17.104Z,1009.75
2017-10-02T09:36:17.066Z,1009.70
2017-10-02T09:37:17.027Z,1009.80
2017-10-02T09:38:17.002Z,1009.82
2017-10-02T09:39:16.967Z,1009.71
2017-10-02T09:40:16.927Z,1009.82
2017-10-02T09:41:16.898Z,1009.72
2017-10-02T09:42:16.866Z,1009.71
2017-10-02T09:43:16.844Z,1009.70
2017-10-02T09:44:16.800Z,1009.72
2017-10-02T09:45:16.766Z,1009.68
2017-10-02T09:46:16.735Z,1009.72
2017-10-02T09:47:16.721Z,1009.78
2017-10-02T09:48:16.676Z,1009.67
2017-10-02T09:49:16.642Z,1009.66
2017-10-02T09:50:16.635Z,1009.69
2017-10-02T09:51:16.588Z,1009.73
2017-10-02T09:52:16.547Z,1009.72
2017-10-02T09:53:16.511Z,1009.74
2017-10-02T09:54:16.475Z,1009.61
2017-10-02T09:55:16.452Z,1009.72
2017-10-02T09:56:16.414Z,1009.69
2017-10-02T09:57:16.389Z,1009.58
2017-10-02T09:58:16.376Z,1009.67
2017-10-02T09:59:16.348Z,1009.61
2017-10-02T10:00:16.290Z,1009.66
2017-10-02T10:01:16.251Z,1009.56
2017-10-02T10:02:16.220Z,1009.63
2017-10-02T10:03:16.187Z,1009.70
2017-10-02T10:04:16.156Z,1009.66
2017-10-02T10:05:16.122Z,1009.67
2017-10-02T10:06:16.098Z,1009.67
2017-10-02T10:07:16.086Z,1009.54
2017-10-02T10:08:16.035Z,1009.64
2017-10-02T10:09:16.010Z,1009.63
2017-10-02T10:10:15.962Z,1009.61
2017-10-02T10:11:15.933Z,1009.59
2017-10-02T10:12:15.904Z,1009.69
2017-10-02T10:13:15.868Z,1009.57
2017-10-02T10:14:15.836Z,1009.57
2017-10-02T10:15:15.806Z,1009.53
2017-10-02T10:16:15.796Z,1009.52
2017-10-02T10:17:15.741Z,1009.58
2017-10-02T10:18:15.707Z,1009.56
2017-10-02T10:19:15.677Z,1009.47
2017-10-02T10:20:15.645Z,1009.41
2017-10-02T10:21:15.622Z,1009.45
2017-10-02T10:22:15.585Z,1009.49
2017-10-02T10:23:15.549Z,1009.45
2017-10-02T10:24:15.522Z,1009.49
2017-10-02T10:25:15.482Z,1009.51
2017-10-02T10:26:15.454Z,1009.42
2017-10-02T10:27:15.455Z,1009.40
2017-10-02T10:28:15.403Z,1009.51
2017-10-02T10:29:15.358Z,1009.45
2017-10-02T10:30:15.329Z,1009.44
2017-10-02T10:31:15.327Z,1009.45
2017-10-02T10:32:15.270Z,1009.37
2017-10-02T10:33:15.239Z,1009.42
2017-10-02T10:34:15.209Z,1009.43
2017-10-02T10:35:15.181Z,1009.34
2017-10-02T10:36:15.148Z,1009.34
2017-10-02T10:37:15.108Z,1009.37
2017-10-02T10:38:15.082Z,1009.33
2017-10-02T10:39:15.045Z,1009.35
2017-10-02T10:40:15.017Z,1009.35
2017-10-02T10:41:14.982Z,1009.40
2017-10-02T10:42:14.962Z,1009.36
2017-10-02T10:43:14.916Z,1009.29
2017-10-02T10:44:14.892Z,1009.30
2017-10-02T10:45:14.891Z,1009.28
2017-10-02T10:46:14.820Z,1009.26
2017-10-02T10:47:14.791Z,1009.28
2017-10-02T10:48:14.765Z,1009.26
2017-10-02T10:49:14.729Z,1009.28
2017-10-02T10:50:14.698Z,1009.26
2017-10-02T10:51:14.662Z,1009.29
2017-10-02T10:52:14.631Z,1009.29
2017-10-02T10:53:14.599Z,1009.27
2017-10-02T10:54:14.565Z,1009.26
2017-10-02T10:55:14.533Z,1009.25
2017-10-02T10:56:14.504Z,1009.28
2017-10-02T10:57:14.474Z,1009.33
2017-10-02T10:58:14.440Z,1009.29
2017-10-02T10:59:14.419Z,1009.26
2017-10-02T11:00:14.375Z,1009.24
2017-10-02T11:01:14.351Z,1009.30
2017-10-02T11:02:14.309Z,1009.23
2017-10-02T11:03:14.277Z,1009.20
2017-10-02T11:04:14.254Z,1009.20
2017-10-02T11:05:14.221Z,1009.25
2017-10-02T11:06:14.184Z,1009.33
2017-10-02T11:07:14.159Z,1009.35
2017-10-02T11:08:14.115Z,1009.36
2017-10-02T11:09:14.085Z,1009.37
2017-10-02T11:10:14.052Z,1009.42
2017-10-02T11:11:14.021Z,1009.45
2017-10-02T11:12:13.995Z,1009.44
2017-10-02T11:13:13.964Z,1009.45
2017-10-02T11:14:13.926Z,1009.44
2017-10-02T11:15:13.899Z,1009.50
2017-10-02T11:16:13.866Z,1009.50
2017-10-02T11:17:13.834Z,1009.53
2017-10-02T11:18:13.792Z,1009.50
2017-10-02T11:19:13.767Z,1009.50
2017-10-02T11:20:13.730Z,1009.53
2017-10-02T11:21:13.689Z,1009.53
2017-10-02T11:22:13.685Z,1009.59
2017-10-02T11:23:13.644Z,1009.52
2017-10-02T11:24:13.604Z,1009.55
2017-10-02T11:25:13.562Z,1009.59
2017-10-02T11:26:13.530Z,1009.58
2017-10-02T11:27:13.498Z,1009.56
2017-10-02T11:28:13.465Z,1009.58
2017-10-02T11:29:13.433Z,1009.54
2017-10-02T11:30:13.413Z,1009.57
2017-10-02T11:31:13.368Z,1009.57
2017-10-02T11:32:13.334Z,1009.59
2017-10-02T11:33:13.334Z,1009.53
2017-10-02T11:34:13.269Z,1009.59
2017-10-02T11:35:13.237Z,1009.57
2017-10-02T11:36:13.205Z,1009.51
2017-10-02T11:37:13.169Z,1009.52
2017-10-02T11:38:13.135Z,1009.49
2017-10-02T11:39:13.102Z,1009.49
2017-10-02T11:40:13.079Z,1009.47
2017-10-02T11:41:13.036Z,1009.47
2017-10-02T11:42:13.002Z,1009.43
2017-10-02T11:43:12.970Z,1009.47
2017-10-02T11:44:12.940Z,1009.46
2017-10-02T11:45:12.906Z,1009.43
2017-10-02T11:46:12.874Z,1009.46
2017-10-02T11:47:12.841Z,1009.40
2017-10-02T11:48:12.809Z,1009.44
2017-10-02T11:49:12.771Z,1009.45
2017-10-02T11:50:12.738Z,1009.41
2017-10-02T11:51:12.702Z,1009.41
2017-10-02T11:52:12.678Z,1009.41
2017-10-02T11:53:12.638Z,1009.40
2017-10-02T11:54:12.619Z,1009.37
2017-10-02T11:55:12.577Z,1009.33
2017-10-02T11:56:12.541Z,1009.35
2017-10-02T11:57:12.509Z,1009.42
2017-10-02T11:58:12.471Z,1009.40
2017-10-02T11:59:12.436Z,1009.36
2017-10-02T12:00:12.409Z,1009.39
2017-10-02T12:01:12.377Z,1009.38
2017-10-02T12:02:12.339Z,1009.36
2017-10-02T12:03:12.306Z,1009.35
2017-10-02T12:04:12.293Z,1009.32
2017-10-02T12:05:12.232Z,1009.36